createdAt,value
2018-06-29T00:02:32.434Z,17.70
2018-06-29T00:05:00.959Z,17.80
2018-06-29T00:07:29.455Z,17.80
2018-06-29T00:09:58.015Z,17.70
2018-06-29T00:12:26.494Z,17.70
2018-06-29T00:17:24.305Z,17.70
2018-06-29T00:19:52.935Z,17.70
2018-06-29T00:22:21.612Z,17.60
2018-06-29T00:24:51.058Z,17.70
2018-06-29T00:27:19.749Z,17.60
2018-06-29T00:29:48.575Z,17.70
2018-06-29T00:32:17.365Z,17.60
2018-06-29T00:37:08.457Z,17.60
2018-06-29T00:39:36.960Z,17.70
2018-06-29T00:42:05.647Z,17.60
2018-06-29T00:44:34.134Z,17.60
2018-06-29T00:47:02.716Z,17.60
2018-06-29T00:49:31.175Z,17.60
2018-06-29T00:51:59.692Z,17.50
2018-06-29T00:54:28.180Z,17.50
2018-06-29T00:56:56.859Z,17.50
2018-06-29T00:59:25.349Z,17.40
2018-06-29T01:01:55.089Z,17.40
2018-06-29T01:06:51.829Z,17.50
2018-06-29T01:09:20.344Z,17.50
2018-06-29T01:11:48.863Z,17.40
2018-06-29T01:14:17.668Z,17.40
2018-06-29T01:16:46.213Z,17.40
2018-06-29T01:19:15.009Z,17.40
2018-06-29T01:21:43.527Z,17.40
2018-06-29T01:24:12.095Z,17.40
2018-06-29T01:26:40.621Z,17.30
2018-06-29T01:29:09.215Z,17.30
2018-06-29T01:31:37.725Z,17.30
2018-06-29T01:34:06.263Z,17.30
2018-06-29T01:36:34.767Z,17.30
2018-06-29T01:39:03.541Z,17.30
2018-06-29T01:41:32.255Z,17.30
2018-06-29T01:44:00.732Z,17.20
2018-06-29T01:46:29.288Z,17.20
2018-06-29T01:48:57.937Z,17.20
2018-06-29T01:51:26.424Z,17.20
2018-06-29T01:53:55.049Z,17.20
2018-06-29T01:56:23.631Z,17.20
2018-06-29T01:58:52.375Z,17.10
2018-06-29T02:01:21.096Z,17.10
2018-06-29T02:03:49.958Z,17.10
2018-06-29T02:06:18.516Z,17.10
2018-06-29T02:08:47.025Z,17.10
2018-06-29T02:11:15.552Z,17.10
2018-06-29T02:13:44.154Z,17.10
2018-06-29T02:16:12.654Z,17.10
2018-06-29T02:18:41.190Z,17.10
2018-06-29T02:21:09.664Z,17.00
2018-06-29T02:23:38.234Z,17.00
2018-06-29T02:26:08.322Z,17.00
2018-06-29T02:28:36.829Z,17.30
2018-06-29T02:31:05.576Z,17.10
2018-06-29T02:33:34.121Z,17.00
2018-06-29T02:36:02.638Z,17.00
2018-06-29T02:38:31.445Z,17.00
2018-06-29T02:40:59.986Z,16.90
2018-06-29T02:43:28.619Z,16.90
2018-06-29T02:45:57.102Z,16.90
2018-06-29T02:48:25.835Z,16.90
2018-06-29T02:50:54.572Z,16.80
2018-06-29T02:53:23.092Z,16.90
2018-06-29T02:55:51.620Z,16.90
2018-06-29T02:58:20.127Z,16.90
2018-06-29T03:00:49.202Z,16.90
2018-06-29T03:03:19.325Z,16.90
2018-06-29T03:05:47.920Z,16.90
2018-06-29T03:08:16.383Z,16.80
2018-06-29T03:10:45.258Z,16.80
2018-06-29T03:13:13.755Z,16.80
2018-06-29T03:15:42.305Z,16.80
2018-06-29T03:18:10.830Z,16.90
2018-06-29T03:20:39.302Z,17.00
2018-06-29T03:23:07.813Z,17.00
2018-06-29T03:25:36.287Z,16.90
2018-06-29T03:28:05.015Z,16.90
2018-06-29T03:30:33.712Z,16.80
2018-06-29T03:33:02.777Z,16.70
2018-06-29T03:35:31.567Z,16.90
2018-06-29T03:38:00.376Z,16.70
2018-06-29T03:40:29.161Z,16.70
2018-06-29T03:42:57.579Z,16.70
2018-06-29T03:45:26.141Z,16.70
2018-06-29T03:47:54.848Z,16.70
2018-06-29T03:50:23.524Z,16.70
2018-06-29T03:52:52.042Z,16.70
2018-06-29T03:55:20.579Z,16.60
2018-06-29T03:57:49.108Z,16.60
2018-06-29T04:00:17.635Z,16.60
2018-06-29T04:02:46.624Z,16.60
2018-06-29T04:05:15.097Z,16.60
2018-06-29T04:07:43.630Z,16.60
2018-06-29T04:12:40.431Z,16.60
2018-06-29T04:15:09.057Z,16.60
2018-06-29T04:17:37.806Z,16.50
2018-06-29T04:20:06.856Z,16.60
2018-06-29T04:22:35.405Z,16.50
2018-06-29T04:25:05.559Z,16.50
2018-06-29T04:27:34.507Z,16.60
2018-06-29T04:30:03.683Z,16.60
2018-06-29T04:32:32.634Z,16.60
2018-06-29T04:35:01.132Z,16.60
2018-06-29T04:37:29.645Z,16.60
2018-06-29T04:39:58.492Z,16.60
2018-06-29T04:42:26.976Z,16.70
2018-06-29T04:44:55.502Z,16.60
2018-06-29T04:47:24.150Z,16.70
2018-06-29T04:49:52.650Z,16.60
2018-06-29T04:52:21.148Z,16.70
2018-06-29T04:54:49.623Z,16.70
2018-06-29T04:57:18.097Z,16.80
2018-06-29T04:59:46.900Z,16.80
2018-06-29T05:02:15.483Z,16.80
2018-06-29T05:04:44.020Z,16.90
2018-06-29T05:07:12.811Z,16.90
2018-06-29T05:09:41.372Z,16.90
2018-06-29T05:12:10.047Z,17.00
2018-06-29T05:14:38.582Z,17.10
2018-06-29T05:17:07.120Z,17.10
2018-06-29T05:19:35.971Z,17.20
2018-06-29T05:22:04.606Z,17.30
2018-06-29T05:24:33.217Z,17.40
2018-06-29T05:27:01.877Z,17.30
2018-06-29T05:29:30.413Z,17.50
2018-06-29T05:31:59.245Z,17.40
2018-06-29T05:34:27.784Z,17.40
2018-06-29T05:36:56.685Z,17.40
2018-06-29T05:39:25.292Z,17.60
2018-06-29T05:41:53.827Z,17.80
2018-06-29T05:44:22.369Z,17.70
2018-06-29T05:46:51.372Z,17.70
2018-06-29T05:49:19.923Z,17.70
2018-06-29T05:51:48.585Z,17.80
2018-06-29T05:54:17.088Z,17.80
2018-06-29T05:56:45.618Z,18.00
2018-06-29T05:59:14.322Z,18.00
2018-06-29T06:01:42.902Z,18.00
2018-06-29T06:04:11.703Z,18.20
2018-06-29T06:06:40.291Z,18.20
2018-06-29T06:09:10.819Z,18.20
2018-06-29T06:11:40.014Z,18.20
2018-06-29T06:14:08.573Z,18.20
2018-06-29T06:16:37.141Z,18.40
2018-06-29T06:19:17.148Z,18.40
2018-06-29T06:21:45.877Z,18.30
2018-06-29T06:24:14.371Z,18.30
2018-06-29T06:26:42.943Z,18.30
2018-06-29T06:29:11.653Z,18.20
2018-06-29T06:31:40.159Z,18.30
2018-06-29T06:34:08.673Z,18.50
2018-06-29T06:36:37.163Z,18.50
2018-06-29T06:39:08.715Z,18.40
2018-06-29T06:41:37.321Z,18.50
2018-06-29T06:44:05.846Z,18.60
2018-06-29T06:46:34.522Z,18.60
2018-06-29T06:49:03.116Z,18.60
2018-06-29T06:51:32.157Z,18.60
2018-06-29T06:56:29.003Z,18.70
2018-06-29T06:58:57.571Z,18.80
2018-06-29T07:01:26.375Z,19.00
2018-06-29T07:03:54.881Z,18.90
2018-06-29T07:06:23.438Z,18.90
2018-06-29T07:08:51.957Z,18.90
2018-06-29T07:11:20.471Z,19.00
2018-06-29T07:13:49.429Z,19.20
2018-06-29T07:16:17.945Z,19.10
2018-06-29T07:18:46.645Z,19.30
2018-06-29T07:21:15.251Z,19.30
2018-06-29T07:23:43.928Z,19.30
2018-06-29T07:26:12.541Z,19.30
2018-06-29T07:28:41.096Z,19.50
2018-06-29T07:31:09.618Z,19.50
2018-06-29T07:33:38.469Z,19.60
2018-06-29T07:36:07.278Z,19.70
2018-06-29T07:38:35.874Z,19.90
2018-06-29T07:41:04.362Z,20.00
2018-06-29T07:43:32.946Z,20.10
2018-06-29T07:46:01.563Z,19.90
2018-06-29T07:48:30.264Z,20.10
2018-06-29T07:50:59.043Z,20.10
2018-06-29T07:55:56.246Z,20.40
2018-06-29T07:58:24.931Z,20.40
2018-06-29T08:00:57.730Z,20.50
2018-06-29T08:03:26.508Z,20.60
2018-06-29T08:05:55.161Z,20.70
2018-06-29T08:08:23.744Z,20.70
2018-06-29T08:10:52.303Z,20.70
2018-06-29T08:13:20.868Z,20.80
2018-06-29T08:15:49.749Z,20.80
2018-06-29T08:18:18.771Z,20.80
2018-06-29T08:20:47.268Z,20.80
2018-06-29T08:23:16.299Z,20.80
2018-06-29T08:25:44.795Z,20.90
2018-06-29T08:28:13.345Z,20.80
2018-06-29T08:30:42.101Z,20.90
2018-06-29T08:33:10.670Z,20.80
2018-06-29T08:35:39.887Z,20.80
2018-06-29T08:38:08.447Z,20.90
2018-06-29T08:40:37.154Z,21.00
2018-06-29T08:43:05.728Z,20.90
2018-06-29T08:45:34.502Z,20.90
2018-06-29T08:48:03.124Z,20.90
2018-06-29T08:50:31.833Z,20.90
2018-06-29T08:53:00.501Z,20.90
2018-06-29T08:55:29.057Z,20.90
2018-06-29T08:57:57.617Z,20.80
2018-06-29T09:00:26.145Z,20.90
2018-06-29T09:02:54.992Z,20.90
2018-06-29T09:05:23.548Z,20.90
2018-06-29T09:07:52.141Z,21.00
2018-06-29T09:10:20.656Z,21.10
2018-06-29T09:12:49.211Z,21.10
2018-06-29T09:15:17.795Z,21.00
2018-06-29T09:17:46.334Z,21.00
2018-06-29T09:20:15.052Z,21.10
2018-06-29T09:25:14.134Z,21.30
2018-06-29T09:27:42.663Z,21.40
2018-06-29T09:30:11.455Z,21.30
2018-06-29T09:32:40.016Z,21.40
2018-06-29T09:37:36.779Z,21.50
2018-06-29T09:40:05.415Z,21.40
2018-06-29T09:42:35.138Z,21.50
2018-06-29T09:45:03.685Z,21.40
2018-06-29T09:47:32.449Z,21.60
2018-06-29T09:50:01.072Z,21.70
2018-06-29T09:52:29.610Z,21.60
2018-06-29T09:54:58.314Z,21.80
2018-06-29T09:57:26.856Z,22.10
2018-06-29T10:02:23.810Z,22.10
2018-06-29T10:04:52.329Z,22.20
2018-06-29T10:07:20.998Z,22.20
2018-06-29T10:09:49.745Z,22.30
2018-06-29T10:12:18.329Z,22.30
2018-06-29T10:14:46.824Z,22.30
2018-06-29T10:17:15.387Z,22.20
2018-06-29T10:19:44.314Z,22.20
2018-06-29T10:22:12.864Z,22.20
2018-06-29T10:24:41.440Z,22.10
2018-06-29T10:27:10.011Z,22.10
2018-06-29T10:29:38.536Z,22.00
2018-06-29T10:34:35.544Z,22.10
2018-06-29T10:37:04.203Z,22.10
2018-06-29T10:39:32.746Z,22.10
2018-06-29T10:42:01.299Z,22.10
2018-06-29T10:44:30.042Z,22.20
2018-06-29T10:46:58.814Z,22.20
2018-06-29T10:49:27.550Z,22.30
2018-06-29T10:51:56.068Z,22.20
2018-06-29T10:56:52.907Z,22.10
2018-06-29T10:59:21.474Z,22.00
2018-06-29T11:01:49.983Z,21.90
2018-06-29T11:04:18.683Z,22.00
2018-06-29T11:06:47.233Z,22.00
2018-06-29T11:09:15.867Z,22.00
2018-06-29T11:11:44.421Z,22.20
2018-06-29T11:14:13.059Z,22.10
2018-06-29T11:16:41.744Z,22.10
2018-06-29T11:19:10.300Z,22.00
2018-06-29T11:21:38.827Z,22.00
2018-06-29T11:24:07.804Z,22.10
2018-06-29T11:26:36.443Z,22.20
2018-06-29T11:29:04.962Z,22.20
2018-06-29T11:31:33.506Z,22.20
2018-06-29T11:34:02.258Z,22.10
2018-06-29T11:36:30.833Z,22.10
2018-06-29T11:38:59.413Z,22.30
2018-06-29T11:41:27.967Z,22.30
2018-06-29T11:43:56.446Z,22.40
2018-06-29T11:46:24.975Z,22.50
2018-06-29T11:51:21.797Z,22.50
2018-06-29T11:53:50.365Z,22.40
2018-06-29T11:56:19.394Z,22.40
2018-06-29T11:58:48.077Z,22.40
2018-06-29T12:03:50.942Z,22.40
2018-06-29T12:06:19.481Z,22.50
2018-06-29T12:08:48.116Z,22.60
2018-06-29T12:11:16.622Z,22.70
2018-06-29T12:13:45.164Z,22.50
2018-06-29T12:16:13.687Z,22.50
2018-06-29T12:18:42.186Z,22.50
2018-06-29T12:21:10.690Z,22.40
2018-06-29T12:23:39.350Z,22.40
2018-06-29T12:26:08.316Z,22.40
2018-06-29T12:28:36.878Z,22.50
2018-06-29T12:31:05.938Z,22.50
2018-06-29T12:33:34.931Z,22.60
2018-06-29T12:36:03.636Z,22.40
2018-06-29T12:38:32.300Z,22.30
2018-06-29T12:41:01.696Z,22.40
2018-06-29T12:43:30.254Z,22.60
2018-06-29T12:45:59.047Z,22.40
2018-06-29T12:48:27.871Z,22.40
2018-06-29T12:50:56.678Z,22.50
2018-06-29T12:53:25.646Z,22.40
2018-06-29T12:55:54.248Z,22.30
2018-06-29T12:58:22.925Z,22.30
2018-06-29T13:00:51.687Z,22.30
2018-06-29T13:03:20.449Z,22.10
2018-06-29T13:05:49.034Z,22.10
2018-06-29T13:08:18.780Z,22.10
2018-06-29T13:10:47.334Z,22.10
2018-06-29T13:13:15.901Z,22.20
2018-06-29T13:15:44.485Z,22.10
2018-06-29T13:18:13.169Z,22.00
2018-06-29T13:20:41.828Z,21.90
2018-06-29T13:23:10.373Z,21.90
2018-06-29T13:25:38.897Z,22.00
2018-06-29T13:28:07.366Z,22.00
2018-06-29T13:30:35.976Z,22.00
2018-06-29T13:33:04.548Z,22.10
2018-06-29T13:38:01.701Z,22.10
2018-06-29T13:40:30.230Z,22.10
2018-06-29T13:42:58.782Z,22.20
2018-06-29T13:45:27.393Z,22.20
2018-06-29T13:47:55.940Z,22.30
2018-06-29T13:50:24.542Z,22.20
2018-06-29T13:52:53.239Z,22.30
2018-06-29T13:55:21.762Z,22.30
2018-06-29T13:57:50.284Z,22.30
2018-06-29T14:00:18.786Z,22.30
2018-06-29T14:02:47.433Z,22.40
2018-06-29T14:05:15.946Z,22.50
2018-06-29T14:07:44.480Z,22.60
2018-06-29T14:10:13.264Z,22.60
2018-06-29T14:12:41.767Z,22.60
2018-06-29T14:15:11.329Z,22.60
2018-06-29T14:17:39.863Z,22.60
2018-06-29T14:20:08.390Z,22.60
2018-06-29T14:22:37.115Z,22.60
2018-06-29T14:25:06.060Z,22.60
2018-06-29T14:27:34.716Z,22.70
2018-06-29T14:30:03.584Z,22.70
2018-06-29T14:32:32.175Z,22.70
2018-06-29T14:35:00.729Z,22.70
2018-06-29T14:39:57.585Z,22.80
2018-06-29T14:42:26.215Z,22.80
2018-06-29T14:44:54.902Z,22.70
2018-06-29T14:47:23.516Z,22.70
2018-06-29T14:49:52.085Z,22.60
2018-06-29T14:52:20.647Z,22.50
2018-06-29T14:54:49.143Z,22.50
2018-06-29T14:57:18.027Z,22.60
2018-06-29T14:59:46.835Z,22.70
2018-06-29T15:02:15.633Z,22.80
2018-06-29T15:04:44.882Z,22.70
2018-06-29T15:07:13.480Z,22.80
2018-06-29T15:09:42.179Z,22.70
2018-06-29T15:12:10.799Z,22.70
2018-06-29T15:14:39.379Z,22.60
2018-06-29T15:19:38.329Z,22.40
2018-06-29T15:22:07.912Z,22.30
2018-06-29T15:24:36.717Z,22.20
2018-06-29T15:27:05.273Z,22.00
2018-06-29T15:29:33.829Z,21.90
2018-06-29T15:32:02.439Z,22.00
2018-06-29T15:34:30.986Z,21.80
2018-06-29T15:36:59.556Z,21.70
2018-06-29T15:39:28.058Z,21.60
2018-06-29T15:41:56.600Z,21.70
2018-06-29T15:44:25.167Z,21.60
2018-06-29T15:46:53.926Z,21.60
2018-06-29T15:49:22.463Z,21.60
2018-06-29T15:51:51.013Z,21.60
2018-06-29T15:54:19.566Z,21.60
2018-06-29T15:59:16.334Z,21.40
2018-06-29T16:01:44.963Z,21.30
2018-06-29T16:04:13.472Z,21.20
2018-06-29T16:06:42.513Z,21.30
2018-06-29T16:09:11.344Z,21.50
2018-06-29T16:11:39.881Z,21.40
2018-06-29T16:14:08.564Z,21.20
2018-06-29T16:16:37.256Z,21.20
2018-06-29T16:19:05.909Z,21.10
2018-06-29T16:21:34.514Z,21.10
2018-06-29T16:24:03.020Z,21.00
2018-06-29T16:26:31.527Z,21.00
2018-06-29T16:29:02.206Z,20.90
2018-06-29T16:31:30.677Z,20.90
2018-06-29T16:33:59.569Z,20.80
2018-06-29T16:36:28.110Z,20.90
2018-06-29T16:38:56.653Z,20.90
2018-06-29T16:41:25.180Z,20.90
2018-06-29T16:43:54.574Z,20.90
2018-06-29T16:48:51.314Z,20.80
2018-06-29T16:51:20.000Z,20.80
2018-06-29T16:53:48.532Z,20.70
2018-06-29T16:56:17.133Z,20.60
2018-06-29T16:58:45.972Z,20.70
2018-06-29T17:01:14.496Z,20.60
2018-06-29T17:03:43.033Z,20.70
2018-06-29T17:06:11.580Z,20.60
2018-06-29T17:08:40.189Z,20.50
2018-06-29T17:11:08.778Z,20.50
2018-06-29T17:13:37.956Z,20.50
2018-06-29T17:16:06.590Z,20.40
2018-06-29T17:18:35.129Z,20.20
2018-06-29T17:21:03.639Z,20.30
2018-06-29T17:23:32.220Z,20.20
2018-06-29T17:26:00.750Z,20.20
2018-06-29T17:28:29.311Z,20.10
2018-06-29T17:30:57.849Z,20.00
2018-06-29T17:33:32.054Z,20.00
2018-06-29T17:38:23.518Z,20.00
2018-06-29T17:40:52.044Z,19.90
2018-06-29T17:43:20.572Z,19.90
2018-06-29T17:45:49.095Z,20.10
2018-06-29T17:48:17.665Z,20.00
2018-06-29T17:50:46.196Z,20.00
2018-06-29T17:53:14.738Z,19.80
2018-06-29T17:55:43.270Z,19.60
2018-06-29T17:58:11.837Z,19.40
2018-06-29T18:00:40.713Z,19.30
2018-06-29T18:03:09.226Z,19.30
2018-06-29T18:05:37.804Z,19.30
2018-06-29T18:13:03.035Z,19.30
2018-06-29T18:15:31.731Z,19.10
2018-06-29T18:18:00.394Z,19.10
2018-06-29T18:20:28.889Z,19.10
2018-06-29T18:22:57.647Z,19.00
2018-06-29T18:25:26.193Z,19.00
2018-06-29T18:27:54.850Z,18.80
2018-06-29T18:30:23.738Z,18.80
2018-06-29T18:32:52.257Z,18.60
2018-06-29T18:35:20.765Z,18.50
2018-06-29T18:37:49.870Z,18.60
2018-06-29T18:42:46.952Z,18.50
2018-06-29T18:45:15.492Z,18.50
2018-06-29T18:47:44.055Z,18.40
2018-06-29T18:50:12.592Z,18.30
2018-06-29T18:52:41.384Z,18.20
2018-06-29T18:55:10.693Z,18.20
2018-06-29T18:57:39.315Z,18.10
2018-06-29T19:00:07.816Z,18.10
2018-06-29T19:02:36.344Z,18.10
2018-06-29T19:05:05.583Z,18.00
2018-06-29T19:07:34.465Z,18.00
2018-06-29T19:10:02.961Z,18.00
2018-06-29T19:12:31.519Z,18.00
2018-06-29T19:15:00.180Z,17.90
2018-06-29T19:17:28.740Z,17.90
2018-06-29T19:19:57.539Z,17.90
2018-06-29T19:22:26.059Z,17.90
2018-06-29T19:24:54.624Z,17.90
2018-06-29T19:27:23.158Z,17.90
2018-06-29T19:29:51.729Z,17.70
2018-06-29T19:32:20.269Z,17.70
2018-06-29T19:34:49.129Z,17.70
2018-06-29T19:37:17.707Z,17.60
2018-06-29T19:39:46.255Z,17.90
2018-06-29T19:42:14.745Z,17.60
2018-06-29T19:44:43.527Z,17.60
2018-06-29T19:47:12.173Z,17.50
2018-06-29T19:49:40.712Z,17.50
2018-06-29T19:52:09.258Z,17.50
2018-06-29T19:54:38.380Z,17.50
2018-06-29T19:57:07.599Z,17.40
2018-06-29T19:59:36.120Z,17.60
2018-06-29T20:02:04.685Z,17.40
2018-06-29T20:04:33.159Z,17.20
2018-06-29T20:07:01.921Z,17.10
2018-06-29T20:09:30.668Z,16.90
2018-06-29T20:11:59.196Z,16.90
2018-06-29T20:14:27.687Z,16.90
2018-06-29T20:16:56.353Z,16.80
2018-06-29T20:19:24.914Z,16.80
2018-06-29T20:21:53.559Z,16.70
2018-06-29T20:24:22.087Z,16.70
2018-06-29T20:26:51.092Z,16.90
2018-06-29T20:29:19.936Z,16.60
2018-06-29T20:31:49.067Z,16.60
2018-06-29T20:34:17.761Z,16.40
2018-06-29T20:36:46.274Z,16.40
2018-06-29T20:39:14.847Z,16.30
2018-06-29T20:41:43.557Z,16.30
2018-06-29T20:44:12.042Z,16.30
2018-06-29T20:46:40.777Z,16.40
2018-06-29T20:49:09.508Z,16.60
2018-06-29T20:54:07.402Z,16.30
2018-06-29T20:56:35.921Z,16.30
2018-06-29T20:59:04.918Z,16.30
2018-06-29T21:01:33.476Z,16.20
2018-06-29T21:04:01.962Z,16.30
2018-06-29T21:06:30.855Z,16.40
2018-06-29T21:08:59.436Z,16.50
2018-06-29T21:11:27.982Z,16.40
2018-06-29T21:16:24.828Z,16.20
2018-06-29T21:18:53.495Z,16.40
2018-06-29T21:21:22.114Z,16.10
2018-06-29T21:26:18.821Z,16.20
2018-06-29T21:28:47.346Z,16.20
2018-06-29T21:31:15.913Z,16.10
2018-06-29T21:33:44.469Z,16.20
2018-06-29T21:36:12.963Z,16.30
2018-06-29T21:41:09.727Z,16.30
2018-06-29T21:48:34.943Z,16.20
2018-06-29T21:51:03.549Z,16.20
2018-06-29T21:56:00.340Z,16.10
2018-06-29T21:58:29.116Z,16.00
2018-06-29T22:00:57.714Z,15.90
2018-06-29T22:03:26.240Z,16.10
2018-06-29T22:05:54.782Z,16.10
2018-06-29T22:08:23.311Z,16.10
2018-06-29T22:10:52.178Z,16.10
2018-06-29T22:13:20.801Z,16.10
2018-06-29T22:15:49.517Z,16.00
2018-06-29T22:18:18.335Z,16.00
2018-06-29T22:20:46.865Z,16.00
2018-06-29T22:23:15.545Z,15.90
2018-06-29T22:25:44.101Z,15.90
2018-06-29T22:28:12.909Z,16.00
2018-06-29T22:30:41.441Z,15.90
2018-06-29T22:33:10.331Z,16.10
2018-06-29T22:35:38.884Z,16.00
2018-06-29T22:38:07.390Z,16.00
2018-06-29T22:40:35.946Z,16.00
2018-06-29T22:43:04.508Z,16.10
2018-06-29T22:45:33.117Z,16.20
2018-06-29T22:48:01.781Z,16.30
2018-06-29T22:50:30.366Z,16.20
2018-06-29T22:52:59.039Z,16.30
2018-06-29T22:55:27.549Z,16.30
2018-06-29T22:57:56.093Z,16.30
2018-06-29T23:00:24.873Z,16.30
2018-06-29T23:02:58.213Z,16.20
2018-06-29T23:05:26.748Z,16.40
2018-06-29T23:07:55.319Z,16.10
2018-06-29T23:10:24.133Z,16.30
2018-06-29T23:12:52.724Z,16.20
2018-06-29T23:15:21.486Z,16.20
2018-06-29T23:17:50.115Z,16.20
2018-06-29T23:20:18.724Z,16.30
2018-06-29T23:22:47.208Z,16.20
2018-06-29T23:25:15.753Z,16.10
2018-06-29T23:27:45.053Z,16.10
2018-06-29T23:30:13.588Z,16.10
2018-06-29T23:32:42.410Z,16.10
2018-06-29T23:35:10.996Z,16.10
2018-06-29T23:37:39.754Z,16.10
2018-06-29T23:40:08.477Z,16.10
2018-06-29T23:42:37.136Z,16.20
2018-06-29T23:45:06.308Z,16.00
2018-06-29T23:47:35.185Z,15.90
2018-06-29T23:50:03.977Z,16.00
2018-06-29T23:52:32.554Z,16.10
2018-06-29T23:55:01.201Z,16.00
2018-06-29T23:57:29.866Z,15.90
2018-06-29T23:59:58.521Z,15.90
